createdAt,value
2023-03-27T00:01:21.757Z,33.87
2023-03-27T00:03:51.887Z,33.67
2023-03-27T00:06:25.384Z,34.33
2023-03-27T00:08:55.896Z,31.80
2023-03-27T00:11:25.510Z,32.57
2023-03-27T00:13:55.009Z,34.37
2023-03-27T00:16:27.096Z,34.97
2023-03-27T00:18:56.575Z,31.43
2023-03-27T00:21:26.350Z,30.63
2023-03-27T00:23:59.721Z,30.53
2023-03-27T00:26:30.707Z,28.47
2023-03-27T00:28:59.371Z,30.33
2023-03-27T00:31:31.220Z,29.80
2023-03-27T00:34:01.690Z,28.97
2023-03-27T00:36:35.871Z,27.77
2023-03-27T00:39:06.896Z,28.07
2023-03-27T00:41:35.553Z,27.97
2023-03-27T00:44:21.757Z,28.50
2023-03-27T00:46:51.315Z,29.40
2023-03-27T00:49:20.119Z,26.80
2023-03-27T00:51:49.586Z,29.57
2023-03-27T00:54:26.731Z,29.50
2023-03-27T00:56:56.990Z,29.77
2023-03-27T00:59:29.341Z,28.20
2023-03-27T01:02:00.322Z,27.40
2023-03-27T01:04:29.237Z,28.57
2023-03-27T01:07:04.161Z,30.07
2023-03-27T01:09:35.596Z,27.80
2023-03-27T01:12:35.112Z,28.17
2023-03-27T01:19:06.346Z,28.17
2023-03-27T01:22:22.399Z,26.07
2023-03-27T01:25:19.899Z,29.03
2023-03-27T01:28:17.068Z,29.70
2023-03-27T01:30:53.181Z,28.83
2023-03-27T01:34:03.219Z,29.67
2023-03-27T01:37:01.001Z,31.67
2023-03-27T01:39:46.169Z,28.60
2023-03-27T01:42:20.595Z,30.87
2023-03-27T01:44:53.747Z,26.77
2023-03-27T01:47:36.979Z,27.83
2023-03-27T01:50:12.704Z,28.87
2023-03-27T01:52:44.438Z,30.27
2023-03-27T01:55:20.321Z,28.10
2023-03-27T01:57:53.152Z,28.97
2023-03-27T02:00:25.036Z,29.90
2023-03-27T02:02:58.198Z,28.40
2023-03-27T02:05:34.362Z,26.93
2023-03-27T02:08:09.106Z,26.87
2023-03-27T02:10:43.697Z,30.23
2023-03-27T02:13:18.552Z,30.33
2023-03-27T02:15:49.252Z,28.43
2023-03-27T02:18:23.899Z,30.27
2023-03-27T02:20:52.926Z,29.93
2023-03-27T02:23:23.385Z,33.33
2023-03-27T02:25:55.979Z,32.07
2023-03-27T02:28:43.900Z,33.07
2023-03-27T02:31:33.919Z,31.87
2023-03-27T02:34:34.151Z,29.73
2023-03-27T02:37:09.729Z,30.40
2023-03-27T02:39:49.136Z,29.77
2023-03-27T02:42:23.796Z,30.90
2023-03-27T02:44:57.938Z,31.30
2023-03-27T02:47:38.928Z,32.40
2023-03-27T02:50:12.340Z,22.45
2023-03-27T02:52:44.851Z,31.97
2023-03-27T02:55:19.255Z,28.87
2023-03-27T02:57:54.809Z,31.80
2023-03-27T03:00:25.961Z,30.93
2023-03-27T03:03:00.606Z,30.10
2023-03-27T03:05:29.792Z,32.73
2023-03-27T03:07:58.471Z,31.57
2023-03-27T03:10:28.560Z,35.30
2023-03-27T03:12:58.745Z,36.67
2023-03-27T03:15:27.407Z,35.00
2023-03-27T03:17:56.092Z,36.80
2023-03-27T03:20:24.963Z,35.83
2023-03-27T03:22:53.697Z,34.53
2023-03-27T03:25:22.224Z,36.30
2023-03-27T03:27:50.900Z,39.07
2023-03-27T03:30:21.031Z,82.67
2023-03-27T03:32:49.805Z,51.40
2023-03-27T03:35:18.526Z,46.33
2023-03-27T03:37:51.204Z,42.17
2023-03-27T03:40:20.969Z,40.00
2023-03-27T03:42:51.723Z,35.23
2023-03-27T03:45:22.159Z,34.70
2023-03-27T03:47:50.815Z,36.87
2023-03-27T03:50:19.534Z,39.87
2023-03-27T03:52:48.187Z,37.30
2023-03-27T03:55:17.265Z,37.43
2023-03-27T03:57:48.593Z,36.90
2023-03-27T04:00:18.993Z,38.87
2023-03-27T04:02:53.507Z,36.03
2023-03-27T04:05:23.015Z,36.23
2023-03-27T04:07:51.713Z,37.60
2023-03-27T04:10:20.575Z,35.23
2023-03-27T04:12:49.588Z,37.93
2023-03-27T04:15:18.744Z,36.73
2023-03-27T04:17:49.916Z,37.77
2023-03-27T04:20:19.128Z,34.77
2023-03-27T04:22:52.522Z,37.27
2023-03-27T04:25:25.012Z,36.73
2023-03-27T04:27:53.815Z,37.77
2023-03-27T04:30:24.179Z,33.33
2023-03-27T04:32:55.005Z,36.00
2023-03-27T04:35:23.722Z,34.30
2023-03-27T04:37:53.078Z,36.87
2023-03-27T04:40:22.198Z,38.97
2023-03-27T04:42:50.770Z,43.00
2023-03-27T04:45:22.890Z,43.70
2023-03-27T04:47:51.976Z,43.53
2023-03-27T04:50:25.809Z,50.13
2023-03-27T04:52:58.968Z,44.60
2023-03-27T04:55:28.006Z,42.87
2023-03-27T04:58:00.586Z,39.57
2023-03-27T05:00:31.272Z,36.43
2023-03-27T05:03:01.495Z,36.13
2023-03-27T05:05:31.747Z,32.30
2023-03-27T05:08:00.385Z,40.67
2023-03-27T05:10:29.096Z,30.80
2023-03-27T05:12:58.458Z,28.13
2023-03-27T05:15:27.982Z,28.27
2023-03-27T05:17:56.664Z,29.30
2023-03-27T05:20:26.263Z,27.80
2023-03-27T05:22:57.322Z,29.03
2023-03-27T05:25:26.667Z,30.67
2023-03-27T05:27:55.566Z,28.77
2023-03-27T05:30:26.475Z,29.60
2023-03-27T05:32:59.708Z,29.00
2023-03-27T05:35:29.285Z,25.67
2023-03-27T05:37:59.328Z,26.87
2023-03-27T05:40:28.787Z,25.50
2023-03-27T05:42:58.345Z,27.33
2023-03-27T05:45:26.931Z,28.40
2023-03-27T05:47:57.496Z,26.33
2023-03-27T05:50:28.679Z,27.27
2023-03-27T05:52:59.407Z,24.63
2023-03-27T05:55:28.519Z,27.73
2023-03-27T05:57:57.360Z,32.87
2023-03-27T06:00:27.580Z,35.30
2023-03-27T06:02:57.976Z,33.10
2023-03-27T06:05:30.123Z,38.07
2023-03-27T06:08:00.526Z,34.70
2023-03-27T06:10:31.162Z,35.33
2023-03-27T06:13:05.264Z,36.37
2023-03-27T06:15:34.305Z,30.27
2023-03-27T06:18:03.058Z,34.07
2023-03-27T06:20:31.875Z,27.93
2023-03-27T06:23:02.254Z,32.33
2023-03-27T06:25:33.653Z,36.63
2023-03-27T06:28:04.757Z,45.03
2023-03-27T06:30:33.558Z,31.23
2023-03-27T06:33:03.207Z,28.00
2023-03-27T06:35:33.377Z,35.20
2023-03-27T06:38:04.136Z,29.83
2023-03-27T06:40:35.489Z,24.27
2023-03-27T06:43:06.513Z,25.47
2023-03-27T06:45:38.260Z,25.27
2023-03-27T06:48:13.381Z,28.03
2023-03-27T06:50:46.662Z,28.90
2023-03-27T06:55:49.624Z,33.93
2023-03-27T06:58:19.543Z,42.47
2023-03-27T07:00:50.520Z,34.73
2023-03-27T07:03:20.350Z,38.33
2023-03-27T07:05:49.770Z,38.13
2023-03-27T07:08:24.804Z,32.10
2023-03-27T07:13:26.146Z,39.87
2023-03-27T07:15:55.100Z,38.87
2023-03-27T07:18:24.134Z,40.20
2023-03-27T07:20:52.791Z,33.63
2023-03-27T07:23:28.469Z,38.03
2023-03-27T07:25:59.955Z,31.83
2023-03-27T07:28:29.519Z,35.53
2023-03-27T07:30:59.779Z,32.20
2023-03-27T07:33:28.979Z,28.47
2023-03-27T07:35:58.012Z,27.83
2023-03-27T07:38:28.849Z,25.67
2023-03-27T07:40:57.805Z,22.50
2023-03-27T07:43:28.003Z,27.67
2023-03-27T07:45:58.587Z,31.83
2023-03-27T07:48:28.306Z,31.47
2023-03-27T07:51:10.914Z,29.27
2023-03-27T07:53:45.066Z,23.20
2023-03-27T07:56:14.158Z,34.47
2023-03-27T07:58:43.009Z,30.90
2023-03-27T08:01:12.193Z,29.83
2023-03-27T08:03:42.114Z,39.50
2023-03-27T08:06:11.902Z,33.60
2023-03-27T08:08:42.710Z,15.25
2023-03-27T08:11:27.455Z,46.30
2023-03-27T08:14:02.412Z,41.27
2023-03-27T08:16:32.031Z,16.48
2023-03-27T08:19:03.708Z,25.87
2023-03-27T08:21:33.663Z,36.87
2023-03-27T08:24:04.993Z,58.57
2023-03-27T08:26:36.585Z,60.03
2023-03-27T08:29:05.764Z,46.30
2023-03-27T08:31:35.653Z,39.93
2023-03-27T08:34:08.935Z,42.60
2023-03-27T08:36:39.245Z,45.83
2023-03-27T08:39:08.557Z,50.10
2023-03-27T08:41:45.544Z,56.60
2023-03-27T08:44:17.642Z,52.90
2023-03-27T08:46:51.414Z,38.33
2023-03-27T08:49:24.268Z,46.37
2023-03-27T08:51:58.838Z,23.17
2023-03-27T08:54:31.894Z,24.63
2023-03-27T08:57:12.723Z,22.80
2023-03-27T08:59:43.878Z,20.93
2023-03-27T09:02:21.295Z,26.93
2023-03-27T09:04:54.868Z,25.80
2023-03-27T09:07:29.988Z,19.45
2023-03-27T09:10:04.972Z,26.57
2023-03-27T09:12:48.710Z,24.63
2023-03-27T09:15:22.623Z,20.73
2023-03-27T09:17:56.664Z,18.60
2023-03-27T09:20:30.112Z,20.93
2023-03-27T09:23:06.072Z,18.00
2023-03-27T09:25:39.807Z,22.13
2023-03-27T09:28:19.657Z,18.00
2023-03-27T09:30:49.066Z,25.67
2023-03-27T09:33:18.195Z,37.30
2023-03-27T09:35:49.317Z,33.33
2023-03-27T09:38:31.808Z,41.03
2023-03-27T09:41:04.328Z,49.17
2023-03-27T09:43:41.934Z,39.70
2023-03-27T09:46:11.802Z,17.87
2023-03-27T09:48:47.339Z,34.70
2023-03-27T09:51:41.449Z,19.60
2023-03-27T09:54:15.043Z,29.33
2023-03-27T09:56:46.939Z,28.40
2023-03-27T09:59:30.046Z,31.00
2023-03-27T10:02:00.714Z,29.90
2023-03-27T10:04:32.956Z,31.97
2023-03-27T10:07:05.692Z,29.27
2023-03-27T10:09:36.024Z,29.20
2023-03-27T10:12:12.737Z,41.33
2023-03-27T10:14:51.795Z,30.40
2023-03-27T10:17:26.773Z,33.80
2023-03-27T10:20:02.327Z,45.93
2023-03-27T10:22:34.445Z,30.97
2023-03-27T10:25:07.096Z,35.93
2023-03-27T10:27:40.817Z,29.03
2023-03-27T10:30:29.779Z,32.00
2023-03-27T10:32:58.593Z,46.80
2023-03-27T10:35:30.916Z,32.33
2023-03-27T10:37:59.660Z,31.30
2023-03-27T10:40:31.672Z,43.37
2023-03-27T10:43:06.586Z,44.27
2023-03-27T10:45:47.172Z,33.50
2023-03-27T10:48:32.092Z,46.83
2023-03-27T10:51:05.736Z,37.97
2023-03-27T10:53:43.950Z,44.23
2023-03-27T10:56:19.878Z,54.97
2023-03-27T10:58:52.504Z,36.23
2023-03-27T11:01:29.271Z,28.50
2023-03-27T11:04:04.486Z,29.63
2023-03-27T11:06:41.941Z,26.57
2023-03-27T11:09:17.544Z,24.37
2023-03-27T11:11:51.017Z,25.07
2023-03-27T11:14:22.524Z,28.73
2023-03-27T11:16:57.587Z,27.57
2023-03-27T11:19:40.817Z,54.87
2023-03-27T11:22:14.383Z,39.23
2023-03-27T11:24:50.838Z,35.47
2023-03-27T11:27:27.005Z,45.90
2023-03-27T11:30:19.019Z,30.03
2023-03-27T11:32:58.630Z,28.40
2023-03-27T11:35:35.176Z,43.33
2023-03-27T11:38:09.375Z,27.90
2023-03-27T11:40:42.378Z,28.60
2023-03-27T11:43:12.744Z,23.73
2023-03-27T11:45:48.799Z,26.17
2023-03-27T11:48:52.437Z,27.07
2023-03-27T11:51:33.783Z,30.87
2023-03-27T11:54:13.523Z,39.67
2023-03-27T11:56:54.752Z,19.50
2023-03-27T11:59:46.768Z,46.07
2023-03-27T12:02:33.269Z,18.63
2023-03-27T12:05:07.140Z,20.63
2023-03-27T12:07:48.118Z,17.30
2023-03-27T12:10:32.294Z,33.30
2023-03-27T12:14:00.938Z,35.93
2023-03-27T12:16:46.882Z,57.93
2023-03-27T12:19:42.445Z,34.30
2023-03-27T12:22:24.609Z,36.50
2023-03-27T12:25:06.570Z,23.87
2023-03-27T12:28:01.973Z,20.93
2023-03-27T12:30:41.011Z,20.00
2023-03-27T12:33:41.524Z,21.60
2023-03-27T12:36:17.431Z,23.58
2023-03-27T12:38:48.172Z,28.50
2023-03-27T12:41:25.757Z,19.70
2023-03-27T12:44:00.822Z,9.43
2023-03-27T12:46:35.464Z,9.33
2023-03-27T12:49:48.131Z,4.22
2023-03-27T12:52:18.950Z,5.83
2023-03-27T12:55:11.740Z,8.60
2023-03-27T12:57:46.229Z,17.10
2023-03-27T13:00:22.417Z,10.33
2023-03-27T13:03:29.357Z,7.77
2023-03-27T13:06:27.444Z,15.47
2023-03-27T13:09:10.957Z,37.23
2023-03-27T13:11:52.454Z,35.97
2023-03-27T13:14:53.831Z,19.50
2023-03-27T13:17:53.817Z,60.27
2023-03-27T13:20:32.613Z,24.20
2023-03-27T13:23:13.960Z,31.87
2023-03-27T13:26:00.197Z,31.30
2023-03-27T13:28:36.820Z,3.10
2023-03-27T13:31:09.822Z,6.60
2023-03-27T13:33:45.885Z,8.30
2023-03-27T13:36:20.079Z,11.03
2023-03-27T13:39:21.367Z,11.73
2023-03-27T13:42:06.653Z,37.10
2023-03-27T13:45:08.196Z,22.77
2023-03-27T13:48:13.131Z,3.47
2023-03-27T13:51:15.946Z,5.63
2023-03-27T13:54:24.407Z,6.93
2023-03-27T13:57:05.835Z,9.90
2023-03-27T13:59:57.427Z,2.97
2023-03-27T14:02:55.481Z,7.87
2023-03-27T14:05:55.952Z,10.40
2023-03-27T14:08:37.438Z,13.97
2023-03-27T14:11:37.700Z,5.43
2023-03-27T14:14:25.521Z,10.37
2023-03-27T14:17:26.716Z,40.30
2023-03-27T14:20:17.829Z,78.47
2023-03-27T14:22:54.653Z,73.43
2023-03-27T14:25:32.789Z,56.03
2023-03-27T14:28:02.689Z,63.70
2023-03-27T14:30:35.028Z,80.00
2023-03-27T14:33:10.412Z,68.77
2023-03-27T14:35:44.553Z,84.70
2023-03-27T14:38:23.978Z,74.47
2023-03-27T14:40:57.655Z,78.40
2023-03-27T14:43:29.943Z,91.20
2023-03-27T14:46:02.554Z,57.33
2023-03-27T14:48:37.939Z,66.37
2023-03-27T14:51:13.753Z,68.93
2023-03-27T14:53:45.473Z,61.60
2023-03-27T14:56:30.307Z,89.10
2023-03-27T14:59:02.351Z,46.47
2023-03-27T15:01:32.238Z,49.13
2023-03-27T15:04:04.104Z,45.10
2023-03-27T15:06:36.867Z,47.77
2023-03-27T15:09:13.595Z,33.27
2023-03-27T15:11:44.553Z,26.17
2023-03-27T15:14:18.699Z,38.23
2023-03-27T15:16:53.024Z,39.97
2023-03-27T15:19:26.273Z,35.97
2023-03-27T15:22:01.600Z,26.63
2023-03-27T15:24:38.144Z,31.07
2023-03-27T15:27:07.204Z,33.17
2023-03-27T15:29:40.995Z,32.33
2023-03-27T15:32:12.365Z,24.53
2023-03-27T15:34:47.995Z,40.33
2023-03-27T15:37:20.353Z,29.40
2023-03-27T15:40:09.284Z,33.03
2023-03-27T15:42:48.450Z,22.67
2023-03-27T15:45:22.128Z,26.27
2023-03-27T15:48:01.897Z,29.33
2023-03-27T15:50:31.893Z,21.70
2023-03-27T15:53:03.395Z,33.63
2023-03-27T15:55:47.441Z,23.30
2023-03-27T15:58:25.441Z,27.87
2023-03-27T16:00:59.366Z,34.23
2023-03-27T16:03:31.434Z,27.40
2023-03-27T16:06:03.016Z,31.70
2023-03-27T16:08:35.918Z,23.37
2023-03-27T16:11:06.482Z,19.10
2023-03-27T16:13:37.405Z,23.80
2023-03-27T16:16:19.726Z,19.83
2023-03-27T16:18:51.808Z,23.10
2023-03-27T16:21:27.147Z,23.27
2023-03-27T16:23:58.259Z,22.63
2023-03-27T16:26:31.878Z,25.43
2023-03-27T16:29:04.753Z,21.87
2023-03-27T16:31:33.738Z,31.97
2023-03-27T16:34:02.577Z,31.93
2023-03-27T16:36:34.095Z,27.23
2023-03-27T16:39:04.465Z,34.87
2023-03-27T16:41:33.288Z,36.57
2023-03-27T16:44:02.117Z,47.93
2023-03-27T16:46:33.930Z,55.03
2023-03-27T16:49:02.517Z,49.33
2023-03-27T16:51:35.974Z,49.77
2023-03-27T16:54:04.615Z,37.27
2023-03-27T16:56:35.379Z,44.07
2023-03-27T16:59:04.905Z,36.83
2023-03-27T17:01:33.663Z,32.43
2023-03-27T17:04:02.319Z,20.90
2023-03-27T17:06:32.321Z,19.17
2023-03-27T17:09:03.876Z,18.27
2023-03-27T17:11:32.789Z,15.47
2023-03-27T17:14:01.534Z,17.10
2023-03-27T17:16:30.649Z,20.83
2023-03-27T17:19:03.220Z,21.90
2023-03-27T17:21:33.347Z,16.03
2023-03-27T17:24:02.316Z,16.90
2023-03-27T17:26:33.446Z,17.73
2023-03-27T17:29:03.532Z,19.50
2023-03-27T17:31:32.288Z,17.63
2023-03-27T17:34:01.326Z,20.90
2023-03-27T17:36:41.115Z,18.93
2023-03-27T17:39:13.514Z,16.90
2023-03-27T17:41:42.182Z,24.23
2023-03-27T17:44:12.491Z,29.07
2023-03-27T17:46:41.420Z,19.83
2023-03-27T17:49:10.684Z,17.50
2023-03-27T17:51:42.976Z,21.00
2023-03-27T17:54:16.436Z,20.00
2023-03-27T17:56:45.539Z,22.67
2023-03-27T17:59:14.293Z,22.87
2023-03-27T18:01:43.782Z,21.83
2023-03-27T18:04:13.029Z,23.27
2023-03-27T18:06:43.776Z,20.90
2023-03-27T18:09:14.510Z,31.33
2023-03-27T18:11:43.355Z,19.57
2023-03-27T18:14:12.220Z,21.93
2023-03-27T18:16:41.074Z,24.83
2023-03-27T18:19:10.179Z,15.50
2023-03-27T18:21:39.049Z,17.40
2023-03-27T18:24:08.314Z,15.07
2023-03-27T18:26:38.758Z,14.57
2023-03-27T18:29:07.559Z,16.97
2023-03-27T18:31:37.607Z,16.13
2023-03-27T18:34:09.152Z,18.57
2023-03-27T18:36:38.404Z,17.23
2023-03-27T18:39:07.874Z,14.00
2023-03-27T18:41:40.063Z,82.07
2023-03-27T18:44:08.725Z,14.90
2023-03-27T18:46:37.662Z,15.43
2023-03-27T18:49:21.623Z,12.50
2023-03-27T18:51:52.863Z,15.47
2023-03-27T18:54:23.776Z,18.13
2023-03-27T18:56:54.172Z,16.57
2023-03-27T18:59:23.699Z,14.90
2023-03-27T19:01:52.659Z,11.90
2023-03-27T19:04:21.328Z,11.33
2023-03-27T19:06:49.972Z,14.90
2023-03-27T19:09:19.949Z,12.83
2023-03-27T19:11:51.763Z,14.47
2023-03-27T19:14:24.687Z,13.50
2023-03-27T19:16:55.092Z,16.33
2023-03-27T19:19:24.164Z,18.40
2023-03-27T19:21:52.978Z,14.80
2023-03-27T19:24:24.068Z,15.07
2023-03-27T19:26:53.723Z,12.07
2023-03-27T19:29:24.195Z,15.37
2023-03-27T19:31:53.807Z,10.90
2023-03-27T19:34:32.759Z,13.17
2023-03-27T19:37:14.753Z,14.87
2023-03-27T19:39:43.481Z,8.37
2023-03-27T19:42:12.744Z,12.50
2023-03-27T19:44:45.502Z,10.83
2023-03-27T19:47:14.412Z,9.87
2023-03-27T19:49:43.096Z,9.70
2023-03-27T19:52:17.101Z,11.50
2023-03-27T19:54:46.174Z,13.50
2023-03-27T19:57:15.739Z,11.20
2023-03-27T19:59:59.262Z,11.00
2023-03-27T20:02:30.243Z,11.07
2023-03-27T20:04:59.457Z,10.23
2023-03-27T20:07:28.308Z,10.70
2023-03-27T20:09:57.442Z,13.90
2023-03-27T20:12:26.607Z,11.80
2023-03-27T20:15:07.617Z,10.63
2023-03-27T20:17:43.208Z,9.97
2023-03-27T20:20:16.210Z,9.63
2023-03-27T20:22:57.144Z,10.10
2023-03-27T20:25:33.892Z,8.40
2023-03-27T20:28:14.193Z,7.23
2023-03-27T20:30:45.307Z,6.40
2023-03-27T20:33:14.239Z,8.43
2023-03-27T20:35:43.709Z,9.37
2023-03-27T20:38:13.567Z,8.27
2023-03-27T20:40:53.330Z,7.73
2023-03-27T20:43:23.154Z,7.13
2023-03-27T20:45:55.131Z,7.17
2023-03-27T20:48:32.843Z,7.77
2023-03-27T20:51:14.943Z,7.50
2023-03-27T20:53:44.957Z,6.23
2023-03-27T20:56:15.758Z,7.13
2023-03-27T20:58:47.419Z,10.97
2023-03-27T21:01:19.879Z,7.23
2023-03-27T21:03:50.470Z,7.93
2023-03-27T21:06:23.342Z,8.80
2023-03-27T21:08:55.143Z,8.30
2023-03-27T21:11:24.142Z,7.13
2023-03-27T21:13:55.384Z,5.87
2023-03-27T21:16:26.478Z,6.47
2023-03-27T21:18:56.631Z,6.03
2023-03-27T21:21:33.775Z,7.07
2023-03-27T21:24:03.816Z,6.57
2023-03-27T21:26:35.665Z,6.37
2023-03-27T21:29:07.137Z,7.03
2023-03-27T21:31:37.819Z,6.67
2023-03-27T21:34:09.233Z,6.40
2023-03-27T21:36:39.466Z,5.50
2023-03-27T21:39:09.447Z,6.30
2023-03-27T21:41:41.540Z,6.93
2023-03-27T21:44:16.485Z,7.33
2023-03-27T21:46:48.729Z,8.27
2023-03-27T21:49:18.043Z,8.20
2023-03-27T21:51:56.910Z,8.13
2023-03-27T21:54:26.204Z,9.33
2023-03-27T21:56:56.803Z,8.90
2023-03-27T21:59:27.587Z,10.10
2023-03-27T22:01:59.185Z,10.80
2023-03-27T22:04:28.813Z,11.47
2023-03-27T22:06:58.511Z,19.05
2023-03-27T22:09:31.113Z,12.10
2023-03-27T22:12:02.467Z,13.37
2023-03-27T22:14:31.837Z,12.63
2023-03-27T22:17:02.637Z,11.20
2023-03-27T22:19:34.564Z,10.73
2023-03-27T22:22:05.807Z,10.60
2023-03-27T22:24:37.407Z,10.13
2023-03-27T22:27:07.091Z,9.97
2023-03-27T22:29:37.299Z,9.70
2023-03-27T22:32:09.619Z,8.53
2023-03-27T22:34:39.836Z,9.97
2023-03-27T22:37:08.643Z,9.93
2023-03-27T22:39:38.345Z,8.77
2023-03-27T22:42:07.722Z,9.90
2023-03-27T22:44:37.320Z,10.20
2023-03-27T22:47:12.870Z,10.10
2023-03-27T22:49:41.711Z,10.30
2023-03-27T22:52:12.856Z,9.53
2023-03-27T22:54:41.838Z,9.33
2023-03-27T22:57:11.159Z,8.17
2023-03-27T22:59:40.235Z,9.27
2023-03-27T23:02:10.802Z,9.17
2023-03-27T23:04:39.535Z,8.50
2023-03-27T23:07:08.663Z,8.37
2023-03-27T23:09:38.054Z,8.97
2023-03-27T23:12:07.388Z,9.47
2023-03-27T23:14:37.049Z,8.60
2023-03-27T23:17:06.758Z,9.50
2023-03-27T23:19:38.160Z,11.03
2023-03-27T23:22:10.528Z,13.67
2023-03-27T23:24:39.972Z,14.77
2023-03-27T23:27:11.211Z,16.20
2023-03-27T23:29:40.006Z,17.60
2023-03-27T23:32:09.554Z,17.53
2023-03-27T23:34:39.785Z,18.43
2023-03-27T23:37:12.549Z,21.40
2023-03-27T23:39:42.417Z,22.63
2023-03-27T23:42:11.226Z,24.03
2023-03-27T23:44:39.988Z,27.43
2023-03-27T23:47:51.936Z,31.70
2023-03-27T23:50:23.636Z,22.50
2023-03-27T23:52:54.236Z,23.93
2023-03-27T23:55:22.992Z,30.27
2023-03-27T23:57:51.730Z,30.83
